Time;durP1;ratioP1;P1;durP2;ratioP2;P2;SDS_P1;SDS_P2;PMS_P1;PMS_P2;Temp;Humidity;BMP_temperature;BMP_pressure;BME280_temperature;BME280_humidity;BME280_pressure;Samples;Min_cycle;Max_cycle;Signal;HPM_P1;HPM_P2
2023/03/10 02:15:24;;;;;;;1999.90;999.90;;;;;;;;;;4979507;28;20227;-67
2023/03/10 02:18:10;;;;;;;1999.90;999.90;;;;;;;;;;4988796;28;20698;-66
2023/03/10 02:20:59;;;;;;;1999.90;999.90;;;;;;;;;;5000081;28;20676;-71
2023/03/10 02:23:48;;;;;;;1999.90;999.90;;;;;;;;;;4980642;28;20236;-69
2023/03/10 02:26:40;;;;;;;1999.90;999.90;;;;;;;;;;4961467;28;20209;-69
2023/03/10 02:29:30;;;;;;;1999.90;999.90;;;;;;;;;;4953544;28;20215;-70
2023/03/10 02:32:16;;;;;;;1999.90;999.90;;;;;;;;;;4957934;28;20244;-70
2023/03/10 02:35:01;;;;;;;1999.90;999.90;;;;;;;;;;4971607;28;20211;-70
2023/03/10 02:37:46;;;;;;;1999.90;999.90;;;;;;;;;;4958976;28;20415;-69
2023/03/10 02:40:33;;;;;;;1999.90;999.90;;;;;;;;;;4971504;28;20603;-70
2023/03/10 02:43:20;;;;;;;1999.90;999.90;;;;;;;;;;4957985;28;20240;-70
2023/03/10 02:46:07;;;;;;;1999.90;999.90;;;;;;;;;;4953553;28;20217;-69
2023/03/10 02:48:52;;;;;;;1999.90;999.90;;;;;;;;;;4965586;28;20448;-69
2023/03/10 02:51:38;;;;;;;1999.90;999.90;;;;;;;;;;4971180;28;20235;-69
2023/03/10 02:54:23;;;;;;;1999.90;999.90;;;;;;;;;;4954357;28;20280;-68
2023/03/10 02:57:08;;;;;;;1999.90;999.90;;;;;;;;;;4953141;29;20224;-69
2023/03/10 02:59:53;;;;;;;1999.90;999.90;;;;;;;;;;4953529;29;20211;-70
2023/03/10 03:02:39;;;;;;;1999.90;999.90;;;;;;;;;;4953201;29;20296;-69
2023/03/10 03:05:24;;;;;;;1999.90;999.90;;;;;;;;;;4953228;29;20249;-70
2023/03/10 03:08:10;;;;;;;1999.90;999.90;;;;;;;;;;4953184;29;20216;-70
2023/03/10 03:10:56;;;;;;;1999.90;999.90;;;;;;;;;;4953469;29;20193;-69
2023/03/10 03:13:41;;;;;;;1999.90;999.90;;;;;;;;;;4915143;29;1113722;-68
2023/03/10 03:16:26;;;;;;;1999.90;999.90;;;;;;;;;;4953997;29;20780;-69
2023/03/10 03:19:13;;;;;;;1999.90;999.90;;;;;;;;;;4957617;28;20280;-69
2023/03/10 03:21:58;;;;;;;1999.90;999.90;;;;;;;;;;4972702;28;20446;-69
2023/03/10 03:24:43;;;;;;;1999.90;999.90;;;;;;;;;;4973373;28;20226;-69
2023/03/10 03:27:29;;;;;;;1999.90;999.90;;;;;;;;;;4970021;28;20211;-68
2023/03/10 03:30:16;;;;;;;1999.90;999.90;;;;;;;;;;4978844;28;20208;-70
2023/03/10 03:33:02;;;;;;;1999.90;999.90;;;;;;;;;;4977199;28;20247;-69
2023/03/10 03:35:49;;;;;;;1999.90;999.90;;;;;;;;;;4977058;28;20824;-70
2023/03/10 03:38:34;;;;;;;1999.90;999.90;;;;;;;;;;4977223;28;20336;-70
2023/03/10 03:41:18;;;;;;;1999.90;999.90;;;;;;;;;;4960406;28;20280;-69
2023/03/10 03:44:04;;;;;;;1999.90;999.90;;;;;;;;;;4957619;29;20225;-69
2023/03/10 03:46:48;;;;;;;1999.90;999.90;;;;;;;;;;4957559;29;20209;-69
2023/03/10 03:49:34;;;;;;;1999.90;999.90;;;;;;;;;;4957444;29;20257;-70
2023/03/10 03:52:20;;;;;;;1999.90;999.90;;;;;;;;;;4973903;28;20234;-70
2023/03/10 03:55:06;;;;;;;1999.90;999.90;;;;;;;;;;4974785;28;20219;-70
2023/03/10 03:57:51;;;;;;;1999.90;999.90;;;;;;;;;;4984317;28;20708;-69
2023/03/10 04:00:37;;;;;;;1999.90;999.90;;;;;;;;;;4982984;28;20219;-70
2023/03/10 04:03:22;;;;;;;1999.90;999.90;;;;;;;;;;4985007;28;20235;-69
2023/03/10 04:06:07;;;;;;;1999.90;999.90;;;;;;;;;;4974126;28;20211;-70
2023/03/10 04:08:53;;;;;;;1999.90;999.90;;;;;;;;;;4977745;28;20216;-70
2023/03/10 04:11:38;;;;;;;1999.90;999.90;;;;;;;;;;4983566;28;20288;-70
2023/03/10 04:14:23;;;;;;;1999.90;999.90;;;;;;;;;;4975539;28;20238;-70
2023/03/10 04:17:08;;;;;;;1999.90;999.90;;;;;;;;;;4976385;28;20599;-70
2023/03/10 04:19:53;;;;;;;1999.90;999.90;;;;;;;;;;4974496;28;20430;-70
2023/03/10 04:22:38;;;;;;;1999.90;999.90;;;;;;;;;;4983715;28;20343;-70
2023/03/10 04:25:24;;;;;;;1999.90;999.90;;;;;;;;;;4974694;28;20598;-69
2023/03/10 04:28:09;;;;;;;1999.90;999.90;;;;;;;;;;4976585;28;20238;-70
2023/03/10 04:30:54;;;;;;;1999.90;999.90;;;;;;;;;;4978298;28;20236;-69
2023/03/10 04:33:40;;;;;;;1999.90;999.90;;;;;;;;;;4979602;28;20240;-70
2023/03/10 04:36:25;;;;;;;1999.90;999.90;;;;;;;;;;4977677;28;20244;-70
2023/03/10 04:39:09;;;;;;;1999.90;999.90;;;;;;;;;;4975338;28;20259;-68
2023/03/10 04:41:56;;;;;;;1999.90;999.90;;;;;;;;;;4985334;28;20215;-69
2023/03/10 04:44:41;;;;;;;1999.90;999.90;;;;;;;;;;4984704;28;20359;-71
2023/03/10 04:47:26;;;;;;;1999.90;999.90;;;;;;;;;;4984245;28;20206;-71
2023/03/10 04:50:16;;;;;;;1999.90;999.90;;;;;;;;;;4979660;28;20207;-71
2023/03/10 04:53:01;;;;;;;1999.90;999.90;;;;;;;;;;4985416;28;20732;-71
2023/03/10 04:55:46;;;;;;;1999.90;999.90;;;;;;;;;;4983662;28;20340;-71
2023/03/10 04:58:32;;;;;;;1999.90;999.90;;;;;;;;;;4991264;28;20228;-70
2023/03/10 05:01:17;;;;;;;1999.90;999.90;;;;;;;;;;4977049;28;20238;-71
2023/03/10 05:04:03;;;;;;;1999.90;999.90;;;;;;;;;;4977464;28;20435;-71
2023/03/10 05:06:49;;;;;;;1999.90;999.90;;;;;;;;;;4983282;28;20208;-71
2023/03/10 05:09:35;;;;;;;1999.90;999.90;;;;;;;;;;4981426;28;20211;-71
2023/03/10 05:12:20;;;;;;;1999.90;999.90;;;;;;;;;;4981896;28;20796;-71
2023/03/10 05:15:08;;;;;;;1999.90;999.90;;;;;;;;;;4978413;28;20215;-70
2023/03/10 05:17:53;;;;;;;1999.90;999.90;;;;;;;;;;4982768;28;20231;-70
2023/03/10 05:20:38;;;;;;;1999.90;999.90;;;;;;;;;;4983223;28;20208;-70
2023/03/10 05:23:23;;;;;;;1999.90;999.90;;;;;;;;;;4973440;28;20283;-69
2023/03/10 05:26:10;;;;;;;1999.90;999.90;;;;;;;;;;4982611;28;20204;-70
2023/03/10 05:28:55;;;;;;;1999.90;999.90;;;;;;;;;;4975403;28;20263;-70
2023/03/10 05:31:41;;;;;;;1999.90;999.90;;;;;;;;;;4979013;28;20581;-70
2023/03/10 05:34:26;;;;;;;1999.90;999.90;;;;;;;;;;4976582;28;20300;-70
2023/03/10 05:37:11;;;;;;;1999.90;999.90;;;;;;;;;;4954131;29;20566;-70
2023/03/10 05:39:58;;;;;;;1999.90;999.90;;;;;;;;;;4982589;28;20312;-70
2023/03/10 05:42:42;;;;;;;1999.90;999.90;;;;;;;;;;4986135;28;20199;-70
2023/03/10 05:45:27;;;;;;;1999.90;999.90;;;;;;;;;;4985745;28;20231;-70
2023/03/10 05:48:13;;;;;;;1999.90;999.90;;;;;;;;;;4983480;28;20204;-71
2023/03/10 05:50:59;;;;;;;1999.90;999.90;;;;;;;;;;4982569;28;20232;-69
2023/03/10 05:53:44;;;;;;;1999.90;999.90;;;;;;;;;;4981314;28;20386;-70
2023/03/10 05:56:29;;;;;;;1999.90;999.90;;;;;;;;;;4982593;28;20719;-69
2023/03/10 05:59:14;;;;;;;1999.90;999.90;;;;;;;;;;4977477;28;20207;-70
2023/03/10 06:01:59;;;;;;;1999.90;999.90;;;;;;;;;;4974083;28;20211;-70
2023/03/10 06:04:45;;;;;;;1999.90;999.90;;;;;;;;;;4982250;28;20231;-70
2023/03/10 06:07:30;;;;;;;1999.90;999.90;;;;;;;;;;4978867;28;20320;-70
2023/03/10 06:10:15;;;;;;;1999.90;999.90;;;;;;;;;;4969852;28;20271;-70
2023/03/10 06:13:00;;;;;;;1999.90;999.90;;;;;;;;;;4964857;28;20239;-70
2023/03/10 06:15:47;;;;;;;1999.90;999.90;;;;;;;;;;4963245;28;20201;-70
2023/03/10 06:18:33;;;;;;;1999.90;999.90;;;;;;;;;;4954801;28;20901;-69
2023/03/10 06:21:19;;;;;;;1999.90;999.90;;;;;;;;;;4970890;28;20739;-67
2023/03/10 06:24:05;;;;;;;1999.90;999.90;;;;;;;;;;4972477;28;20236;-68
2023/03/10 06:26:50;;;;;;;1999.90;999.90;;;;;;;;;;4954689;28;20209;-67
2023/03/10 06:29:35;;;;;;;1999.90;999.90;;;;;;;;;;4954410;28;20252;-68
2023/03/10 06:32:20;;;;;;;1999.90;999.90;;;;;;;;;;4962894;28;20291;-68
2023/03/10 06:35:05;;;;;;;1999.90;999.90;;;;;;;;;;4973751;28;20487;-68
2023/03/10 06:37:52;;;;;;;1999.90;999.90;;;;;;;;;;4962231;28;20223;-70
2023/03/10 06:40:37;;;;;;;1999.90;999.90;;;;;;;;;;4954578;28;20298;-71
2023/03/10 06:43:22;;;;;;;1999.90;999.90;;;;;;;;;;4954246;28;20232;-71
2023/03/10 06:46:08;;;;;;;1999.90;999.90;;;;;;;;;;4954587;28;20216;-69
2023/03/10 06:48:52;;;;;;;1999.90;999.90;;;;;;;;;;4961262;28;20248;-70
2023/03/10 06:51:37;;;;;;;1999.90;999.90;;;;;;;;;;4972463;28;20584;-69
2023/03/10 06:54:24;;;;;;;1999.90;999.90;;;;;;;;;;4971925;28;20782;-70
2023/03/10 06:57:09;;;;;;;1999.90;999.90;;;;;;;;;;4971928;28;20216;-69
2023/03/10 06:59:54;;;;;;;1999.90;999.90;;;;;;;;;;4958723;28;20223;-68
2023/03/10 07:02:38;;;;;;;1999.90;999.90;;;;;;;;;;4973247;28;20263;-69
2023/03/10 07:05:26;;;;;;;1999.90;999.90;;;;;;;;;;4961807;28;20626;-69
2023/03/10 07:08:10;;;;;;;1999.90;999.90;;;;;;;;;;4955937;28;20200;-69
2023/03/10 07:10:57;;;;;;;1999.90;999.90;;;;;;;;;;4954300;28;20713;-68
2023/03/10 07:13:42;;;;;;;1999.90;999.90;;;;;;;;;;4957685;28;20367;-69
2023/03/10 07:16:27;;;;;;;1999.90;999.90;;;;;;;;;;4954727;28;20215;-67
2023/03/10 07:19:12;;;;;;;1999.90;999.90;;;;;;;;;;4953071;28;20512;-69
2023/03/10 07:21:57;;;;;;;1999.90;999.90;;;;;;;;;;4954060;28;20264;-71
2023/03/10 07:24:42;;;;;;;1999.90;999.90;;;;;;;;;;4954885;28;20232;-70
2023/03/10 07:27:28;;;;;;;1999.90;999.90;;;;;;;;;;4970914;28;20986;-69
2023/03/10 07:30:13;;;;;;;1999.90;999.90;;;;;;;;;;4970098;28;20207;-70
2023/03/10 07:32:58;;;;;;;1999.90;999.90;;;;;;;;;;4970644;28;20644;-70
2023/03/10 07:35:44;;;;;;;1999.90;999.90;;;;;;;;;;4984812;28;20211;-71
2023/03/10 07:38:29;;;;;;;1999.90;999.90;;;;;;;;;;4973515;28;20227;-69
2023/03/10 07:41:15;;;;;;;1999.90;999.90;;;;;;;;;;4972673;28;20221;-69
2023/03/10 07:44:01;;;;;;;1999.90;999.90;;;;;;;;;;4975619;28;20271;-70
2023/03/10 07:46:46;;;;;;;1999.90;999.90;;;;;;;;;;4975017;28;20207;-70
2023/03/10 07:49:31;;;;;;;1999.90;999.90;;;;;;;;;;4971641;28;20340;-70
2023/03/10 07:52:17;;;;;;;1999.90;999.90;;;;;;;;;;4978811;28;20528;-70
2023/03/10 07:55:01;;;;;;;1999.90;999.90;;;;;;;;;;4982369;28;20223;-70
2023/03/10 07:57:46;;;;;;;1999.90;999.90;;;;;;;;;;4978705;28;20220;-71
2023/03/10 08:00:33;;;;;;;1999.90;999.90;;;;;;;;;;4969173;28;20223;-70
2023/03/10 08:03:18;;;;;;;1999.90;999.90;;;;;;;;;;4981708;28;20731;-69
2023/03/10 08:06:04;;;;;;;1999.90;999.90;;;;;;;;;;4979494;28;20467;-70
2023/03/10 08:08:49;;;;;;;1999.90;999.90;;;;;;;;;;4973622;28;20208;-71
2023/03/10 08:11:34;;;;;;;1999.90;999.90;;;;;;;;;;4975069;28;20208;-70
2023/03/10 08:14:22;;;;;;;1999.90;999.90;;;;;;;;;;4984185;28;20234;-68
2023/03/10 08:17:09;;;;;;;1999.90;999.90;;;;;;;;;;4972724;28;20228;-70
2023/03/10 08:19:54;;;;;;;1999.90;999.90;;;;;;;;;;4976724;28;20346;-69
2023/03/10 08:22:38;;;;;;;1999.90;999.90;;;;;;;;;;4971851;28;20212;-71
2023/03/10 08:25:23;;;;;;;1999.90;999.90;;;;;;;;;;4974271;28;20755;-69
2023/03/10 08:28:08;;;;;;;1999.90;999.90;;;;;;;;;;4975152;28;20204;-70
2023/03/10 08:30:53;;;;;;;1999.90;999.90;;;;;;;;;;4972023;28;20223;-72
2023/03/10 08:33:40;;;;;;;1999.90;999.90;;;;;;;;;;4974827;28;20363;-72
2023/03/10 08:36:26;;;;;;;1999.90;999.90;;;;;;;;;;4970391;28;20427;-72
2023/03/10 08:39:11;;;;;;;1999.90;999.90;;;;;;;;;;4975757;28;20328;-69
2023/03/10 08:41:57;;;;;;;1999.90;999.90;;;;;;;;;;4981438;28;20213;-71
2023/03/10 08:44:42;;;;;;;1999.90;999.90;;;;;;;;;;4989317;28;20327;-71
2023/03/10 08:47:26;;;;;;;1999.90;999.90;;;;;;;;;;4974701;28;20246;-72
2023/03/10 08:50:13;;;;;;;1999.90;999.90;;;;;;;;;;4974230;28;20411;-72
2023/03/10 08:52:58;;;;;;;1999.90;999.90;;;;;;;;;;4974428;28;20240;-71
2023/03/10 08:55:43;;;;;;;1999.90;999.90;;;;;;;;;;4973263;28;20619;-70
2023/03/10 08:58:28;;;;;;;1999.90;999.90;;;;;;;;;;4985909;28;20244;-71
2023/03/10 09:01:14;;;;;;;1999.90;999.90;;;;;;;;;;4974443;28;20215;-72
2023/03/10 09:04:00;;;;;;;1999.90;999.90;;;;;;;;;;4982097;28;20231;-72
2023/03/10 09:06:46;;;;;;;1999.90;999.90;;;;;;;;;;4984556;28;20227;-71
2023/03/10 09:09:31;;;;;;;1999.90;999.90;;;;;;;;;;4972442;28;20263;-72
2023/03/10 09:12:16;;;;;;;1999.90;999.90;;;;;;;;;;4981320;28;20216;-72
2023/03/10 09:15:01;;;;;;;1999.90;999.90;;;;;;;;;;4974302;28;20286;-72
2023/03/10 09:17:46;;;;;;;1999.90;999.90;;;;;;;;;;4976276;28;20219;-72
2023/03/10 09:20:31;;;;;;;1999.90;999.90;;;;;;;;;;4970598;28;20311;-71
2023/03/10 09:23:17;;;;;;;1999.90;999.90;;;;;;;;;;4981416;28;20350;-71
2023/03/10 09:26:03;;;;;;;1999.90;999.90;;;;;;;;;;4975312;28;20454;-71
2023/03/10 09:28:49;;;;;;;1999.90;999.90;;;;;;;;;;4975174;28;20212;-70
2023/03/10 09:31:36;;;;;;;1999.90;999.90;;;;;;;;;;4971374;28;20416;-71
2023/03/10 09:34:21;;;;;;;1999.90;999.90;;;;;;;;;;4974991;28;20227;-72
2023/03/10 09:37:06;;;;;;;1999.90;999.90;;;;;;;;;;4972535;28;20226;-71
2023/03/10 09:39:52;;;;;;;1999.90;999.90;;;;;;;;;;4971279;28;20204;-71
2023/03/10 09:42:39;;;;;;;1999.90;999.90;;;;;;;;;;4972991;28;20204;-71
2023/03/10 09:45:32;;;;;;;1999.90;999.90;;;;;;;;;;4971924;28;20355;-70
2023/03/10 09:48:24;;;;;;;1999.90;999.90;;;;;;;;;;4974165;28;20398;-70
2023/03/10 09:51:15;;;;;;;1999.90;999.90;;;;;;;;;;4971215;28;20302;-72
2023/03/10 09:54:08;;;;;;;1999.90;999.90;;;;;;;;;;4976200;28;20719;-71
2023/03/10 09:56:55;;;;;;;1999.90;999.90;;;;;;;;;;4971504;28;20299;-71
2023/03/10 09:59:41;;;;;;;1999.90;999.90;;;;;;;;;;4971872;28;20292;-71
2023/03/10 10:02:28;;;;;;;1999.90;999.90;;;;;;;;;;4971913;28;20207;-71
2023/03/10 10:05:16;;;;;;;1999.90;999.90;;;;;;;;;;4971980;28;20256;-72
2023/03/10 10:08:03;;;;;;;1999.90;999.90;;;;;;;;;;4970980;28;20208;-71
2023/03/10 10:10:49;;;;;;;1999.90;999.90;;;;;;;;;;4972124;28;20255;-72
2023/03/10 10:13:36;;;;;;;1999.90;999.90;;;;;;;;;;4972360;28;20326;-70
2023/03/10 10:16:25;;;;;;;1999.90;999.90;;;;;;;;;;4978339;28;20478;-72
2023/03/10 10:19:13;;;;;;;1999.90;999.90;;;;;;;;;;4980077;28;20290;-72
2023/03/10 10:22:00;;;;;;;1999.90;999.90;;;;;;;;;;4974560;28;20582;-71
2023/03/10 10:24:55;;;;;;;1999.90;999.90;;;;;;;;;;4974591;28;20235;-71
2023/03/10 10:27:41;;;;;;;1999.90;999.90;;;;;;;;;;4979075;28;20208;-72
2023/03/10 10:30:37;;;;;;;1999.90;999.90;;;;;;;;;;4981780;28;20254;-71
2023/03/10 10:33:22;;;;;;;1999.90;999.90;;;;;;;;;;4976700;28;20787;-72
2023/03/10 10:36:15;;;;;;;1999.90;999.90;;;;;;;;;;4979064;28;20208;-73
2023/03/10 10:39:01;;;;;;;1999.90;999.90;;;;;;;;;;4984705;28;20331;-73
2023/03/10 10:41:46;;;;;;;1999.90;999.90;;;;;;;;;;4967927;28;20327;-72
2023/03/10 10:44:39;;;;;;;1999.90;999.90;;;;;;;;;;4972444;28;20437;-72
2023/03/10 10:47:28;;;;;;;1999.90;999.90;;;;;;;;;;4974658;28;20207;-71
2023/03/10 10:50:18;;;;;;;1999.90;999.90;;;;;;;;;;4977802;28;20211;-72
2023/03/10 10:53:17;;;;;;;1999.90;999.90;;;;;;;;;;4975270;28;20299;-71
2023/03/10 10:56:04;;;;;;;1999.90;999.90;;;;;;;;;;4977965;28;20216;-72
2023/03/10 10:59:00;;;;;;;1999.90;999.90;;;;;;;;;;4964437;28;20450;-73
2023/03/10 11:01:47;;;;;;;1999.90;999.90;;;;;;;;;;4987202;28;20210;-73
2023/03/10 11:04:42;;;;;;;1999.90;999.90;;;;;;;;;;4970462;28;20609;-73
2023/03/10 11:07:27;;;;;;;1999.90;999.90;;;;;;;;;;4979683;28;20294;-73
2023/03/10 11:10:14;;;;;;;1999.90;999.90;;;;;;;;;;4979760;28;20262;-73
2023/03/10 11:13:01;;;;;;;1999.90;999.90;;;;;;;;;;4972725;28;20235;-73
2023/03/10 11:15:51;;;;;;;1999.90;999.90;;;;;;;;;;4973024;28;20216;-73
2023/03/10 11:18:38;;;;;;;1999.90;999.90;;;;;;;;;;4968320;28;20228;-73
2023/03/10 11:21:26;;;;;;;1999.90;999.90;;;;;;;;;;4978083;28;20219;-73
2023/03/10 11:24:16;;;;;;;1999.90;999.90;;;;;;;;;;4976952;28;20236;-71
2023/03/10 11:27:04;;;;;;;1999.90;999.90;;;;;;;;;;4971202;28;20257;-72
2023/03/10 11:30:00;;;;;;;1999.90;999.90;;;;;;;;;;4972202;28;20283;-71
2023/03/10 11:32:51;;;;;;;1999.90;999.90;;;;;;;;;;4982586;28;20349;-73
2023/03/10 11:35:42;;;;;;;1999.90;999.90;;;;;;;;;;4965029;28;20592;-72
2023/03/10 11:38:36;;;;;;;1999.90;999.90;;;;;;;;;;4953561;28;20225;-72
2023/03/10 11:41:23;;;;;;;1999.90;999.90;;;;;;;;;;4973052;28;20216;-72
2023/03/10 11:44:13;;;;;;;1999.90;999.90;;;;;;;;;;4972089;28;20546;-73
2023/03/10 11:47:00;;;;;;;1999.90;999.90;;;;;;;;;;4975112;28;20316;-72
2023/03/10 11:49:50;;;;;;;1999.90;999.90;;;;;;;;;;4976542;28;20700;-71
2023/03/10 11:52:36;;;;;;;1999.90;999.90;;;;;;;;;;4976825;28;20328;-73
2023/03/10 11:55:22;;;;;;;1999.90;999.90;;;;;;;;;;4976762;28;20208;-69
2023/03/10 11:58:14;;;;;;;1999.90;999.90;;;;;;;;;;4976313;28;20592;-73
2023/03/10 12:01:00;;;;;;;1999.90;999.90;;;;;;;;;;4976010;28;20252;-73
2023/03/10 12:03:49;;;;;;;1999.90;999.90;;;;;;;;;;4976468;28;20621;-72
2023/03/10 12:06:36;;;;;;;1999.90;999.90;;;;;;;;;;4966039;28;20227;-72
2023/03/10 12:09:29;;;;;;;1999.90;999.90;;;;;;;;;;4970877;28;20208;-71
2023/03/10 12:12:18;;;;;;;1999.90;999.90;;;;;;;;;;4969905;28;20542;-72
2023/03/10 12:15:05;;;;;;;1999.90;999.90;;;;;;;;;;4964512;28;20212;-70
2023/03/10 12:17:52;;;;;;;1999.90;999.90;;;;;;;;;;4970305;28;20211;-72
2023/03/10 12:20:36;;;;;;;1999.90;999.90;;;;;;;;;;4979936;28;20587;-71
2023/03/10 12:23:39;;;;;;;1999.90;999.90;;;;;;;;;;4974393;28;20242;-72
2023/03/10 12:26:43;;;;;;;1999.90;999.90;;;;;;;;;;4982818;28;20415;-71
2023/03/10 12:29:34;;;;;;;1999.90;999.90;;;;;;;;;;4983483;28;21542;-71
2023/03/10 12:32:39;;;;;;;1999.90;999.90;;;;;;;;;;4993493;28;20211;-72
2023/03/10 12:35:42;;;;;;;1999.90;999.90;;;;;;;;;;4995089;28;20707;-71
2023/03/10 12:38:34;;;;;;;1999.90;999.90;;;;;;;;;;4992827;28;20677;-72
2023/03/10 12:41:38;;;;;;;1999.90;999.90;;;;;;;;;;4976067;28;20255;-71
2023/03/10 12:44:42;;;;;;;1999.90;999.90;;;;;;;;;;4975774;28;20248;-72
2023/03/10 12:47:34;;;;;;;1999.90;999.90;;;;;;;;;;4975672;28;20203;-71
2023/03/10 12:50:23;;;;;;;1999.90;999.90;;;;;;;;;;4975870;28;20675;-71
2023/03/10 12:53:22;;;;;;;1999.90;999.90;;;;;;;;;;4975274;28;20290;-71
2023/03/10 12:56:18;;;;;;;1999.90;999.90;;;;;;;;;;4974708;28;20435;-72
2023/03/10 12:59:08;;;;;;;1999.90;999.90;;;;;;;;;;4974391;28;20591;-72
2023/03/10 13:01:56;;;;;;;1999.90;999.90;;;;;;;;;;4966876;28;20271;-71
2023/03/10 13:04:42;;;;;;;1999.90;999.90;;;;;;;;;;4956145;29;20328;-71
2023/03/10 13:07:28;;;;;;;1999.90;999.90;;;;;;;;;;4955998;28;20259;-70
2023/03/10 13:10:16;;;;;;;1999.90;999.90;;;;;;;;;;4956166;29;20248;-70
2023/03/10 13:13:02;;;;;;;1999.90;999.90;;;;;;;;;;4973514;28;20240;-70
2023/03/10 13:15:57;;;;;;;1999.90;999.90;;;;;;;;;;4974673;28;20582;-71
2023/03/10 13:18:48;;;;;;;1999.90;999.90;;;;;;;;;;4955773;29;20221;-72
2023/03/10 13:21:34;;;;;;;1999.90;999.90;;;;;;;;;;4955788;29;20209;-71
2023/03/10 13:24:21;;;;;;;1999.90;999.90;;;;;;;;;;4955787;29;20278;-72
2023/03/10 13:27:07;;;;;;;1999.90;999.90;;;;;;;;;;4955513;29;20211;-71
2023/03/10 13:29:56;;;;;;;1999.90;999.90;;;;;;;;;;4955390;29;20627;-71
2023/03/10 13:32:41;;;;;;;1999.90;999.90;;;;;;;;;;4960922;28;20212;-71
2023/03/10 13:35:32;;;;;;;1999.90;999.90;;;;;;;;;;4976318;28;20212;-72
2023/03/10 13:38:19;;;;;;;1999.90;999.90;;;;;;;;;;4974603;28;20200;-71
2023/03/10 13:41:09;;;;;;;1999.90;999.90;;;;;;;;;;4955569;29;20220;-72
2023/03/10 13:43:55;;;;;;;1999.90;999.90;;;;;;;;;;4955725;28;20267;-72
2023/03/10 13:46:45;;;;;;;1999.90;999.90;;;;;;;;;;4959067;28;20227;-72
2023/03/10 13:49:32;;;;;;;1999.90;999.90;;;;;;;;;;4954951;28;20200;-71
2023/03/10 13:52:19;;;;;;;1999.90;999.90;;;;;;;;;;4965932;28;20407;-70
2023/03/10 13:55:05;;;;;;;1999.90;999.90;;;;;;;;;;4970157;28;20220;-71
2023/03/10 13:57:50;;;;;;;1999.90;999.90;;;;;;;;;;4964750;28;20209;-70
2023/03/10 14:00:36;;;;;;;1999.90;999.90;;;;;;;;;;4955166;29;20208;-71
2023/03/10 14:03:21;;;;;;;1999.90;999.90;;;;;;;;;;4955727;28;20232;-71
2023/03/10 14:06:12;;;;;;;1999.90;999.90;;;;;;;;;;4968651;28;20220;-70
2023/03/10 14:09:11;;;;;;;1999.90;999.90;;;;;;;;;;4963997;28;20208;-70
2023/03/10 14:11:56;;;;;;;1999.90;999.90;;;;;;;;;;4974137;28;20212;-70
2023/03/10 14:14:41;;;;;;;1999.90;999.90;;;;;;;;;;4973964;28;20243;-71
2023/03/10 14:17:32;;;;;;;1999.90;999.90;;;;;;;;;;4974254;28;20231;-71
2023/03/10 14:20:25;;;;;;;1999.90;999.90;;;;;;;;;;4973784;28;20215;-70
2023/03/10 14:23:25;;;;;;;1999.90;999.90;;;;;;;;;;4973732;28;20227;-71
2023/03/10 14:26:14;;;;;;;1999.90;999.90;;;;;;;;;;4973885;28;20211;-71
2023/03/10 14:29:00;;;;;;;1999.90;999.90;;;;;;;;;;4973977;28;20208;-71
2023/03/10 14:31:49;;;;;;;1999.90;999.90;;;;;;;;;;4973898;28;20219;-70
2023/03/10 14:34:34;;;;;;;1999.90;999.90;;;;;;;;;;4972919;28;20410;-71
2023/03/10 14:37:20;;;;;;;1999.90;999.90;;;;;;;;;;4972932;28;20319;-70
2023/03/10 14:40:05;;;;;;;1999.90;999.90;;;;;;;;;;4978639;28;20238;-69
2023/03/10 14:42:53;;;;;;;1999.90;999.90;;;;;;;;;;4964705;28;20220;-71
2023/03/10 14:45:38;;;;;;;1999.90;999.90;;;;;;;;;;4982683;28;20207;-69
2023/03/10 14:48:24;;;;;;;1999.90;999.90;;;;;;;;;;4990391;28;20211;-70
2023/03/10 14:51:13;;;;;;;1999.90;999.90;;;;;;;;;;4970324;28;20493;-70
2023/03/10 14:53:57;;;;;;;1999.90;999.90;;;;;;;;;;4973566;28;20258;-70
2023/03/10 14:56:42;;;;;;;1999.90;999.90;;;;;;;;;;4966958;28;20449;-70
2023/03/10 14:59:28;;;;;;;1999.90;999.90;;;;;;;;;;4970314;28;21068;-70
2023/03/10 15:02:17;;;;;;;1999.90;999.90;;;;;;;;;;4960808;28;20448;-71
2023/03/10 15:05:02;;;;;;;1999.90;999.90;;;;;;;;;;4965898;28;20457;-70
2023/03/10 15:07:48;;;;;;;1999.90;999.90;;;;;;;;;;4972552;28;20953;-71
2023/03/10 15:10:34;;;;;;;1999.90;999.90;;;;;;;;;;4971437;28;20563;-70
2023/03/10 15:13:19;;;;;;;1999.90;999.90;;;;;;;;;;4966583;28;20495;-71
2023/03/10 15:16:06;;;;;;;1999.90;999.90;;;;;;;;;;4972133;28;20476;-71
2023/03/10 15:18:52;;;;;;;1999.90;999.90;;;;;;;;;;4964952;28;20709;-71
2023/03/10 15:21:37;;;;;;;1999.90;999.90;;;;;;;;;;4980773;28;20425;-71
2023/03/10 15:24:22;;;;;;;1999.90;999.90;;;;;;;;;;4973042;28;20452;-72
2023/03/10 15:27:07;;;;;;;1999.90;999.90;;;;;;;;;;4972975;28;20507;-72
2023/03/10 15:29:51;;;;;;;1999.90;999.90;;;;;;;;;;4972767;28;20481;-72
2023/03/10 15:32:38;;;;;;;1999.90;999.90;;;;;;;;;;4973118;28;20496;-72
2023/03/10 15:35:23;;;;;;;1999.90;999.90;;;;;;;;;;4973197;28;20437;-72
2023/03/10 15:38:08;;;;;;;1999.90;999.90;;;;;;;;;;4972904;28;20417;-73
2023/03/10 15:40:53;;;;;;;1999.90;999.90;;;;;;;;;;4973102;28;20476;-73
2023/03/10 15:43:38;;;;;;;1999.90;999.90;;;;;;;;;;4974832;28;20437;-76
2023/03/10 15:46:23;;;;;;;1999.90;999.90;;;;;;;;;;4974516;28;20821;-73
2023/03/10 15:49:09;;;;;;;1999.90;999.90;;;;;;;;;;4977415;28;20463;-72
2023/03/10 15:51:54;;;;;;;1999.90;999.90;;;;;;;;;;4974405;28;20558;-73
2023/03/10 15:54:40;;;;;;;1999.90;999.90;;;;;;;;;;4973030;28;20930;-72
2023/03/10 15:57:24;;;;;;;1999.90;999.90;;;;;;;;;;4972777;28;20476;-72
2023/03/10 16:00:10;;;;;;;1999.90;999.90;;;;;;;;;;4972657;28;20839;-72
2023/03/10 16:02:55;;;;;;;1999.90;999.90;;;;;;;;;;4971188;28;20480;-74
2023/03/10 16:05:47;;;;;;;1999.90;999.90;;;;;;;;;;4973052;28;20702;-72
2023/03/10 16:08:36;;;;;;;1999.90;999.90;;;;;;;;;;4972677;28;20423;-72
2023/03/10 16:11:21;;;;;;;1999.90;999.90;;;;;;;;;;4972467;28;20408;-74
2023/03/10 16:14:06;;;;;;;1999.90;999.90;;;;;;;;;;4972644;28;20472;-74
2023/03/10 16:16:51;;;;;;;1999.90;999.90;;;;;;;;;;4972613;28;20565;-74
2023/03/10 16:19:36;;;;;;;1999.90;999.90;;;;;;;;;;4972398;28;20463;-74
2023/03/10 16:22:22;;;;;;;1999.90;999.90;;;;;;;;;;4972683;28;20942;-74
2023/03/10 16:25:08;;;;;;;1999.90;999.90;;;;;;;;;;4972629;28;20502;-75
2023/03/10 16:27:53;;;;;;;1999.90;999.90;;;;;;;;;;4972501;28;20510;-74
2023/03/10 16:30:38;;;;;;;1999.90;999.90;;;;;;;;;;4973013;28;20896;-71
2023/03/10 16:33:23;;;;;;;1999.90;999.90;;;;;;;;;;4974030;28;20513;-74
2023/03/10 16:36:11;;;;;;;1999.90;999.90;;;;;;;;;;4975764;28;20210;-74
2023/03/10 16:38:57;;;;;;;1999.90;999.90;;;;;;;;;;4976064;28;20429;-74
2023/03/10 16:41:42;;;;;;;1999.90;999.90;;;;;;;;;;4975810;28;20420;-74
2023/03/10 16:44:27;;;;;;;1999.90;999.90;;;;;;;;;;4976027;28;20444;-74
2023/03/10 16:47:12;;;;;;;1999.90;999.90;;;;;;;;;;4974477;28;20415;-72
2023/03/10 16:49:57;;;;;;;1999.90;999.90;;;;;;;;;;4975880;28;20793;-73
2023/03/10 16:52:42;;;;;;;1999.90;999.90;;;;;;;;;;4975710;28;20511;-73
2023/03/10 16:55:29;;;;;;;1999.90;999.90;;;;;;;;;;4975581;28;20928;-73
2023/03/10 16:58:14;;;;;;;1999.90;999.90;;;;;;;;;;4975465;28;20519;-74
2023/03/10 17:00:58;;;;;;;1999.90;999.90;;;;;;;;;;4975506;28;20476;-73
2023/03/10 17:03:43;;;;;;;1999.90;999.90;;;;;;;;;;4975566;28;20571;-74
2023/03/10 17:06:30;;;;;;;1999.90;999.90;;;;;;;;;;4975321;28;20503;-72
2023/03/10 17:09:16;;;;;;;1999.90;999.90;;;;;;;;;;4975447;28;20438;-72
2023/03/10 17:12:02;;;;;;;1999.90;999.90;;;;;;;;;;4975459;28;20974;-73
2023/03/10 17:14:49;;;;;;;1999.90;999.90;;;;;;;;;;4975383;28;20834;-73
2023/03/10 17:17:34;;;;;;;1999.90;999.90;;;;;;;;;;4975440;28;20800;-73
2023/03/10 17:20:20;;;;;;;1999.90;999.90;;;;;;;;;;4975099;28;20519;-73
2023/03/10 17:23:05;;;;;;;1999.90;999.90;;;;;;;;;;4975179;28;20435;-74
2023/03/10 17:25:50;;;;;;;1999.90;999.90;;;;;;;;;;4975238;28;20558;-73
2023/03/10 17:28:37;;;;;;;1999.90;999.90;;;;;;;;;;4974932;28;20423;-72
2023/03/10 17:31:25;;;;;;;1999.90;999.90;;;;;;;;;;4973741;28;20411;-73
2023/03/10 17:34:12;;;;;;;1999.90;999.90;;;;;;;;;;4975202;28;20448;-73
2023/03/10 17:36:57;;;;;;;1999.90;999.90;;;;;;;;;;4975195;28;20425;-73
2023/03/10 17:39:42;;;;;;;1999.90;999.90;;;;;;;;;;4974639;28;20836;-72
2023/03/10 17:42:29;;;;;;;1999.90;999.90;;;;;;;;;;4975090;28;20984;-72
2023/03/10 17:45:15;;;;;;;1999.90;999.90;;;;;;;;;;4974543;28;20425;-73